Time;durP1;ratioP1;P1;durP2;ratioP2;P2;SDS_P1;SDS_P2;PMS_P1;PMS_P2;Temp;Humidity;BMP_temperature;BMP_pressure;BME280_temperature;BME280_humidity;BME280_pressure;Samples;Min_cycle;Max_cycle;Signal;HPM_P1;HPM_P2
2023/05/20 00:00:27;;;;;;;16.08;6.57;;;12.60;99.90;;;;;;5037972;28;20030;-70
2023/05/20 00:02:53;;;;;;;10.93;5.93;;;12.60;99.90;;;;;;5037614;28;20545;-71
2023/05/20 00:05:18;;;;;;;12.30;5.78;;;12.50;99.90;;;;;;5037626;28;20402;-71
2023/05/20 00:07:44;;;;;;;13.02;5.40;;;12.50;99.90;;;;;;5037930;28;20433;-71
2023/05/20 00:10:10;;;;;;;11.93;5.30;;;12.50;99.90;;;;;;5035614;28;20021;-71
2023/05/20 00:12:37;;;;;;;11.13;5.85;;;12.40;99.90;;;;;;5037262;28;20018;-71
2023/05/20 00:15:04;;;;;;;9.90;5.32;;;12.40;99.90;;;;;;5037703;28;20394;-71
2023/05/20 00:17:30;;;;;;;8.52;6.15;;;12.30;99.90;;;;;;5035766;28;20077;-71
2023/05/20 00:19:55;;;;;;;8.60;5.30;;;12.30;99.90;;;;;;5037478;28;20029;-71
2023/05/20 00:22:21;;;;;;;12.00;5.82;;;12.30;99.90;;;;;;5037513;28;20017;-70
2023/05/20 00:24:47;;;;;;;7.93;5.10;;;12.30;99.90;;;;;;5036569;28;20572;-71
2023/05/20 00:27:12;;;;;;;10.98;5.00;;;12.30;99.90;;;;;;5037422;28;20393;-71
2023/05/20 00:29:38;;;;;;;14.02;6.90;;;12.20;99.90;;;;;;5037357;28;20478;-72
2023/05/20 00:32:04;;;;;;;11.27;6.28;;;12.20;99.90;;;;;;5037000;28;20052;-71
2023/05/20 00:34:30;;;;;;;9.38;6.20;;;12.20;99.90;;;;;;5037243;28;20056;-71
2023/05/20 00:36:55;;;;;;;12.70;6.00;;;12.20;99.90;;;;;;5037267;28;20025;-71
2023/05/20 00:39:21;;;;;;;10.75;6.22;;;12.10;99.90;;;;;;5035952;28;20459;-71
2023/05/20 00:41:47;;;;;;;9.93;5.53;;;12.10;99.90;;;;;;5035753;28;20037;-71
2023/05/20 00:44:12;;;;;;;10.50;6.18;;;12.10;99.90;;;;;;5037151;28;20029;-71
2023/05/20 00:46:38;;;;;;;14.43;6.25;;;12.10;99.90;;;;;;5037073;28;20030;-70
2023/05/20 00:49:04;;;;;;;7.45;5.35;;;12.10;99.90;;;;;;5036767;28;20022;-70
2023/05/20 00:51:30;;;;;;;9.52;5.90;;;12.00;99.90;;;;;;5037078;28;20393;-70
2023/05/20 00:53:56;;;;;;;11.50;6.20;;;12.00;99.90;;;;;;5036977;28;20025;-70
2023/05/20 00:56:22;;;;;;;15.80;6.35;;;12.00;99.90;;;;;;5035625;28;20028;-71
2023/05/20 00:58:49;;;;;;;10.82;6.07;;;12.00;99.90;;;;;;5035520;28;20025;-71
2023/05/20 01:01:15;;;;;;;11.13;5.90;;;11.90;99.90;;;;;;5035406;28;20445;-70
2023/05/20 01:03:40;;;;;;;15.20;6.80;;;11.90;99.90;;;;;;5036416;28;20037;-70
2023/05/20 01:06:06;;;;;;;15.23;6.57;;;11.90;99.90;;;;;;5035542;28;20049;-71
2023/05/20 01:08:33;;;;;;;8.57;6.03;;;11.90;99.90;;;;;;5035484;28;20021;-71
2023/05/20 01:11:13;;;;;;;12.88;6.43;;;11.90;99.90;;;;;;5034534;28;20052;-70
2023/05/20 01:13:53;;;;;;;15.98;6.35;;;11.90;99.90;;;;;;5036665;28;20079;-71
2023/05/20 01:16:22;;;;;;;10.75;6.55;;;11.90;99.90;;;;;;5027998;28;20033;-70
2023/05/20 01:18:48;;;;;;;8.52;6.18;;;11.80;99.90;;;;;;5034654;28;20092;-71
2023/05/20 01:21:16;;;;;;;15.48;6.45;;;11.90;99.90;;;;;;5036645;28;20033;-70
2023/05/20 01:23:42;;;;;;;14.80;6.38;;;11.80;99.90;;;;;;5036313;28;20029;-71
2023/05/20 01:26:09;;;;;;;11.75;6.15;;;11.80;99.90;;;;;;5035297;28;20052;-71
2023/05/20 01:28:37;;;;;;;13.43;7.53;;;11.70;99.90;;;;;;5035051;28;20044;-70
2023/05/20 01:31:07;;;;;;;12.10;6.00;;;11.70;99.90;;;;;;5036779;28;20037;-70
2023/05/20 01:33:36;;;;;;;14.37;6.53;;;11.70;99.90;;;;;;5035960;28;20083;-70
2023/05/20 01:36:02;;;;;;;10.55;6.68;;;11.70;99.90;;;;;;5038672;28;20021;-71
2023/05/20 01:38:29;;;;;;;12.38;6.57;;;11.70;99.90;;;;;;5040638;28;20068;-71
2023/05/20 01:40:56;;;;;;;13.75;7.55;;;11.70;99.90;;;;;;5040735;28;20025;-72
2023/05/20 01:43:24;;;;;;;13.10;6.55;;;11.80;99.90;;;;;;5040502;28;20589;-71
2023/05/20 01:45:49;;;;;;;8.32;5.32;;;11.80;99.90;;;;;;5040402;28;20024;-71
2023/05/20 01:48:16;;;;;;;10.95;7.82;;;11.80;99.90;;;;;;5040028;28;20026;-70
2023/05/20 01:50:42;;;;;;;11.07;6.57;;;11.80;99.90;;;;;;5040544;28;20021;-71
2023/05/20 01:53:08;;;;;;;17.98;6.72;;;11.80;99.90;;;;;;5040230;28;20123;-71
2023/05/20 01:55:34;;;;;;;12.48;6.05;;;11.80;99.90;;;;;;5040395;28;20025;-71
2023/05/20 01:58:01;;;;;;;9.70;6.82;;;11.80;99.90;;;;;;5040023;28;20032;-71
2023/05/20 02:00:26;;;;;;;9.60;6.78;;;11.80;99.90;;;;;;5040101;28;20105;-70
2023/05/20 02:02:52;;;;;;;11.23;7.05;;;11.80;99.90;;;;;;5040168;28;20072;-71
2023/05/20 02:05:18;;;;;;;13.75;6.72;;;11.90;99.90;;;;;;5039963;28;20022;-71
2023/05/20 02:07:43;;;;;;;12.52;6.55;;;11.80;99.90;;;;;;5040286;28;20021;-71
2023/05/20 02:10:09;;;;;;;12.50;6.00;;;11.90;99.90;;;;;;5038452;28;20026;-71
2023/05/20 02:12:35;;;;;;;13.93;8.05;;;11.90;99.90;;;;;;5038612;28;20025;-71
2023/05/20 02:15:01;;;;;;;8.32;6.40;;;11.80;99.90;;;;;;5038672;28;20436;-71
2023/05/20 02:17:26;;;;;;;10.48;6.35;;;11.80;99.90;;;;;;5039449;28;20029;-71
2023/05/20 02:19:52;;;;;;;11.60;7.15;;;11.80;99.90;;;;;;5039689;28;20502;-71
2023/05/20 02:22:17;;;;;;;9.82;6.70;;;11.80;99.90;;;;;;5039665;28;20483;-71
2023/05/20 02:24:43;;;;;;;10.52;5.80;;;11.90;99.90;;;;;;5030148;28;20033;-71
2023/05/20 02:27:09;;;;;;;8.82;5.78;;;11.80;99.90;;;;;;5039401;28;20024;-71
2023/05/20 02:29:35;;;;;;;17.98;6.80;;;11.80;99.90;;;;;;5039678;28;20032;-71
2023/05/20 02:32:01;;;;;;;12.80;6.57;;;11.90;99.90;;;;;;5038062;28;20025;-71
2023/05/20 02:34:29;;;;;;;12.65;7.35;;;11.90;99.90;;;;;;5039543;28;20052;-71
2023/05/20 02:36:55;;;;;;;10.90;6.35;;;11.90;99.90;;;;;;5039402;28;20089;-71
2023/05/20 02:39:21;;;;;;;16.48;6.43;;;11.80;99.90;;;;;;5039316;28;20017;-70
2023/05/20 02:41:47;;;;;;;12.90;6.88;;;11.80;99.90;;;;;;5039407;28;20020;-70
2023/05/20 02:44:12;;;;;;;13.50;6.97;;;11.80;99.90;;;;;;5039307;28;20093;-71
2023/05/20 02:46:38;;;;;;;11.45;5.63;;;11.80;99.90;;;;;;5036971;28;20010;-71
2023/05/20 02:49:04;;;;;;;15.45;7.05;;;11.90;99.90;;;;;;5038656;28;20021;-70
2023/05/20 02:51:32;;;;;;;13.40;7.28;;;11.90;99.90;;;;;;5039212;28;20021;-72
2023/05/20 02:53:57;;;;;;;10.75;6.47;;;11.90;99.90;;;;;;5039223;28;20024;-71
2023/05/20 02:56:23;;;;;;;15.48;6.57;;;11.80;99.90;;;;;;5038937;28;20033;-71
2023/05/20 02:58:49;;;;;;;10.30;5.97;;;11.90;99.90;;;;;;5038974;28;20057;-71
2023/05/20 03:01:14;;;;;;;10.00;6.78;;;11.90;99.90;;;;;;5037365;28;20025;-70
2023/05/20 03:03:41;;;;;;;8.25;5.78;;;11.90;99.90;;;;;;5038538;28;20025;-71
2023/05/20 03:06:07;;;;;;;11.02;7.28;;;11.90;99.90;;;;;;5037728;28;20013;-71
2023/05/20 03:08:33;;;;;;;16.88;7.50;;;11.90;99.90;;;;;;5038439;28;20028;-71
2023/05/20 03:10:59;;;;;;;10.98;7.55;;;11.90;99.90;;;;;;5036452;28;20386;-71
2023/05/20 03:13:25;;;;;;;15.40;7.20;;;11.90;99.90;;;;;;5038703;28;20032;-70
2023/05/20 03:15:51;;;;;;;15.30;7.97;;;11.90;99.90;;;;;;5038686;28;20026;-71
2023/05/20 03:18:17;;;;;;;13.73;7.57;;;11.90;99.90;;;;;;5038264;28;20049;-71
2023/05/20 03:20:42;;;;;;;14.98;6.70;;;11.90;99.90;;;;;;5038524;28;20025;-71
2023/05/20 03:23:09;;;;;;;12.85;7.97;;;11.80;99.90;;;;;;5038716;28;20059;-70
2023/05/20 03:25:36;;;;;;;12.27;7.90;;;11.90;99.90;;;;;;5038459;28;20025;-70
2023/05/20 03:28:01;;;;;;;9.02;6.78;;;11.80;99.90;;;;;;5037113;28;20064;-70
2023/05/20 03:30:27;;;;;;;11.68;7.20;;;11.80;99.90;;;;;;5038411;28;20067;-70
2023/05/20 03:32:56;;;;;;;12.93;7.72;;;11.80;99.90;;;;;;5038406;28;20060;-71
2023/05/20 03:35:22;;;;;;;15.13;7.63;;;11.80;99.90;;;;;;5038149;28;20103;-70
2023/05/20 03:37:47;;;;;;;12.40;7.75;;;11.80;99.90;;;;;;5038255;28;20022;-70
2023/05/20 03:40:13;;;;;;;10.80;6.28;;;11.70;99.90;;;;;;5038108;28;20039;-71
2023/05/20 03:42:39;;;;;;;12.25;6.93;;;11.70;99.90;;;;;;5038256;28;20445;-70
2023/05/20 03:45:08;;;;;;;11.55;6.65;;;11.70;99.90;;;;;;5038263;28;20018;-70
2023/05/20 03:47:34;;;;;;;8.98;7.05;;;11.70;99.90;;;;;;5037964;28;20558;-71
2023/05/20 03:49:59;;;;;;;14.13;6.80;;;11.60;99.90;;;;;;5036596;28;20053;-70
2023/05/20 03:52:25;;;;;;;13.95;7.95;;;11.60;99.90;;;;;;5036750;28;20401;-71
2023/05/20 03:54:52;;;;;;;11.27;6.85;;;11.60;99.90;;;;;;5038010;28;20022;-71
2023/05/20 03:57:18;;;;;;;13.02;6.78;;;11.60;99.90;;;;;;5038098;28;20049;-71
2023/05/20 03:59:44;;;;;;;13.88;7.35;;;11.50;99.90;;;;;;5036191;28;20025;-71
2023/05/20 04:02:10;;;;;;;15.63;8.13;;;11.50;99.90;;;;;;5037744;28;20479;-70
2023/05/20 04:04:35;;;;;;;14.70;7.72;;;11.50;99.90;;;;;;5036621;28;20068;-72
2023/05/20 04:07:02;;;;;;;13.95;7.43;;;11.50;99.90;;;;;;5037911;28;20018;-71
2023/05/20 04:09:28;;;;;;;11.52;7.38;;;11.50;99.90;;;;;;5035430;28;20486;-71
2023/05/20 04:11:53;;;;;;;13.25;7.85;;;11.40;99.90;;;;;;5037496;28;20025;-71
2023/05/20 04:14:19;;;;;;;12.20;7.50;;;11.40;99.90;;;;;;5036329;28;20100;-71
2023/05/20 04:16:44;;;;;;;19.20;7.75;;;11.40;99.90;;;;;;5037367;28;20465;-72
2023/05/20 04:19:11;;;;;;;11.13;6.55;;;11.30;99.90;;;;;;5036037;28;20081;-71
2023/05/20 04:21:37;;;;;;;13.13;7.88;;;11.30;99.90;;;;;;5037472;28;20018;-70
2023/05/20 04:24:03;;;;;;;10.60;8.23;;;11.30;99.90;;;;;;5037372;28;20112;-71
2023/05/20 04:26:29;;;;;;;13.63;8.63;;;11.30;99.90;;;;;;5036135;28;20025;-71
2023/05/20 04:28:57;;;;;;;13.50;8.73;;;11.30;99.90;;;;;;5037388;28;20029;-71
2023/05/20 04:31:25;;;;;;;20.58;8.48;;;11.20;99.90;;;;;;5035889;28;20026;-71
2023/05/20 04:33:54;;;;;;;11.60;8.27;;;11.20;99.90;;;;;;5036943;28;20028;-70
2023/05/20 04:36:21;;;;;;;14.15;9.10;;;11.20;99.90;;;;;;5035815;28;20056;-71
2023/05/20 04:38:47;;;;;;;15.02;8.95;;;11.20;99.90;;;;;;5037107;28;20028;-71
2023/05/20 04:41:14;;;;;;;15.05;8.90;;;11.20;99.90;;;;;;5037130;28;20038;-70
2023/05/20 04:43:40;;;;;;;17.88;8.82;;;11.20;99.90;;;;;;5037134;28;20080;-70
2023/05/20 04:46:06;;;;;;;19.27;8.82;;;11.20;99.90;;;;;;5037127;28;20025;-71
2023/05/20 04:48:32;;;;;;;18.55;10.10;;;11.20;99.90;;;;;;5036638;28;20030;-71
2023/05/20 04:50:58;;;;;;;18.77;8.50;;;11.20;99.90;;;;;;5036901;28;20025;-71
2023/05/20 04:53:24;;;;;;;13.88;8.45;;;11.20;99.90;;;;;;5035427;28;20041;-71
2023/05/20 04:55:53;;;;;;;17.85;8.48;;;11.20;99.90;;;;;;5036987;28;20029;-71
2023/05/20 04:58:23;;;;;;;16.40;9.55;;;11.20;99.90;;;;;;5036547;28;20044;-71
2023/05/20 05:00:50;;;;;;;14.35;9.30;;;11.20;99.90;;;;;;5034219;28;20088;-70
2023/05/20 05:03:16;;;;;;;15.45;9.05;;;11.20;99.90;;;;;;5035886;28;20025;-71
2023/05/20 05:05:42;;;;;;;14.48;9.43;;;11.30;99.90;;;;;;5036719;28;20536;-70
2023/05/20 05:08:10;;;;;;;10.88;8.32;;;11.30;99.90;;;;;;5036648;28;20025;-71
2023/05/20 05:10:36;;;;;;;14.45;8.40;;;11.30;99.90;;;;;;5027650;28;20028;-72
2023/05/20 05:13:02;;;;;;;17.10;9.90;;;11.30;99.90;;;;;;5034652;28;20025;-71
2023/05/20 05:15:28;;;;;;;11.70;7.85;;;11.30;99.90;;;;;;5035110;28;20026;-71
2023/05/20 05:17:54;;;;;;;10.65;8.63;;;11.40;99.90;;;;;;5036129;28;20056;-71
2023/05/20 05:20:19;;;;;;;16.98;7.82;;;11.40;99.90;;;;;;5036147;28;20022;-71
2023/05/20 05:22:45;;;;;;;15.02;8.48;;;11.40;99.90;;;;;;5036776;28;20029;-72
2023/05/20 05:25:12;;;;;;;14.65;8.43;;;11.50;99.90;;;;;;5036646;28;20057;-72
2023/05/20 05:27:38;;;;;;;14.48;8.98;;;11.50;99.90;;;;;;5036325;28;20021;-72
2023/05/20 05:30:05;;;;;;;13.25;8.63;;;11.60;99.90;;;;;;5035040;28;20021;-71
2023/05/20 05:32:31;;;;;;;15.65;9.05;;;11.70;99.90;;;;;;5036069;28;20082;-72
2023/05/20 05:34:57;;;;;;;15.45;8.32;;;11.70;99.90;;;;;;5036161;28;20379;-71
2023/05/20 05:37:22;;;;;;;15.80;10.35;;;11.80;99.90;;;;;;5036535;28;20017;-72
2023/05/20 05:39:48;;;;;;;17.52;8.63;;;11.80;99.90;;;;;;5034814;28;20029;-72
2023/05/20 05:42:14;;;;;;;19.88;8.55;;;11.90;99.90;;;;;;5035171;28;20028;-71
2023/05/20 05:44:39;;;;;;;18.17;8.73;;;12.00;99.90;;;;;;5036312;28;20021;-71
2023/05/20 05:47:05;;;;;;;19.10;7.90;;;12.00;99.90;;;;;;5036027;28;20120;-72
2023/05/20 05:49:32;;;;;;;11.85;8.00;;;12.10;99.90;;;;;;5036152;28;20099;-71
2023/05/20 05:51:58;;;;;;;15.23;8.18;;;12.10;99.90;;;;;;5036386;28;20059;-71
2023/05/20 05:54:23;;;;;;;18.20;9.77;;;12.10;99.90;;;;;;5035849;28;20038;-72
2023/05/20 05:56:53;;;;;;;20.23;10.90;;;12.10;99.90;;;;;;5034843;28;20069;-72
2023/05/20 05:59:19;;;;;;;21.42;9.00;;;12.10;99.90;;;;;;5036190;28;20113;-72
2023/05/20 06:01:44;;;;;;;13.70;8.02;;;12.10;99.90;;;;;;5034285;28;20045;-72
2023/05/20 06:04:10;;;;;;;20.67;10.10;;;12.20;99.90;;;;;;5027068;28;20631;-72
2023/05/20 06:06:36;;;;;;;16.17;8.63;;;12.20;99.90;;;;;;5036672;28;20048;-72
2023/05/20 06:09:02;;;;;;;11.25;7.63;;;12.20;99.90;;;;;;5031929;28;20033;-73
2023/05/20 06:11:28;;;;;;;15.65;9.13;;;12.20;99.90;;;;;;5036304;28;20521;-73
2023/05/20 06:13:54;;;;;;;16.85;9.30;;;12.20;99.90;;;;;;5033854;28;20029;-73
2023/05/20 06:16:20;;;;;;;16.20;8.95;;;12.20;99.90;;;;;;5036204;28;20112;-73
2023/05/20 06:18:46;;;;;;;20.38;8.57;;;12.30;99.90;;;;;;5034546;28;20047;-73
2023/05/20 06:21:11;;;;;;;12.00;8.20;;;12.30;99.90;;;;;;5035718;28;20394;-73
2023/05/20 06:23:37;;;;;;;13.68;8.38;;;12.40;99.90;;;;;;5039940;28;20021;-72
2023/05/20 06:26:03;;;;;;;15.15;8.77;;;12.40;99.90;;;;;;5040311;28;20477;-72
2023/05/20 06:28:29;;;;;;;17.17;8.57;;;12.50;99.90;;;;;;5039973;28;20029;-73
2023/05/20 06:30:55;;;;;;;13.75;8.30;;;12.60;99.90;;;;;;5040069;28;20097;-73
2023/05/20 06:33:25;;;;;;;14.70;7.05;;;12.70;99.90;;;;;;5038450;28;20053;-73
2023/05/20 06:35:55;;;;;;;16.23;8.10;;;12.80;99.90;;;;;;5039989;28;20045;-73
2023/05/20 06:38:20;;;;;;;14.82;7.30;;;12.90;99.90;;;;;;5038799;28;20057;-71
2023/05/20 06:40:48;;;;;;;8.63;7.03;;;13.00;99.90;;;;;;5038577;28;20024;-72
2023/05/20 06:43:14;;;;;;;17.38;8.25;;;13.10;99.90;;;;;;5038403;28;20561;-72
2023/05/20 06:45:40;;;;;;;19.33;10.18;;;13.20;99.90;;;;;;5039806;28;20018;-72
2023/05/20 06:48:06;;;;;;;12.00;6.80;;;13.30;99.90;;;;;;5039250;28;20037;-73
2023/05/20 06:50:32;;;;;;;12.75;7.22;;;13.30;99.90;;;;;;5039847;28;20029;-72
2023/05/20 06:52:57;;;;;;;17.42;7.65;;;13.40;99.90;;;;;;5039266;28;20032;-72
2023/05/20 06:55:23;;;;;;;10.88;6.90;;;13.40;99.90;;;;;;5039421;28;20029;-71
2023/05/20 06:57:49;;;;;;;15.38;8.32;;;13.40;99.90;;;;;;5038163;28;20067;-73
2023/05/20 07:00:14;;;;;;;11.13;7.10;;;13.40;99.90;;;;;;5038553;28;20445;-73
2023/05/20 07:02:42;;;;;;;8.93;6.68;;;13.50;99.90;;;;;;5038705;28;20025;-73
2023/05/20 07:05:08;;;;;;;12.20;7.90;;;13.50;99.90;;;;;;5039208;28;20010;-72
2023/05/20 07:07:34;;;;;;;16.35;7.70;;;13.60;99.90;;;;;;5038026;28;20128;-73
2023/05/20 07:10:00;;;;;;;13.30;6.35;;;13.60;99.90;;;;;;5031928;28;20022;-73
2023/05/20 07:12:25;;;;;;;15.55;7.18;;;13.60;99.90;;;;;;5039267;28;20044;-73
2023/05/20 07:14:51;;;;;;;14.05;8.18;;;13.70;99.90;;;;;;5039260;28;20381;-72
2023/05/20 07:17:17;;;;;;;10.80;6.90;;;13.80;99.90;;;;;;5038972;28;20029;-74
2023/05/20 07:19:42;;;;;;;15.13;7.18;;;13.90;99.90;;;;;;5034649;28;20044;-73
2023/05/20 07:22:08;;;;;;;10.57;6.68;;;13.90;99.90;;;;;;5038905;28;20036;-72
2023/05/20 07:24:35;;;;;;;10.80;6.43;;;14.00;99.90;;;;;;5037852;28;20513;-72
2023/05/20 07:27:01;;;;;;;9.45;6.13;;;14.10;99.90;;;;;;5038772;28;20474;-72
2023/05/20 07:29:26;;;;;;;13.38;7.00;;;14.10;99.90;;;;;;5039392;28;20045;-72
2023/05/20 07:31:52;;;;;;;11.77;7.03;;;14.20;99.90;;;;;;5038383;28;20029;-71
2023/05/20 07:34:18;;;;;;;11.65;6.90;;;14.30;99.90;;;;;;5036245;28;20085;-72
2023/05/20 07:36:43;;;;;;;10.63;6.20;;;14.30;99.90;;;;;;5038760;28;20084;-73
2023/05/20 07:39:09;;;;;;;8.32;5.65;;;14.30;99.90;;;;;;5037547;28;20021;-71
2023/05/20 07:41:36;;;;;;;10.13;6.20;;;14.40;99.90;;;;;;5037422;28;20108;-71
2023/05/20 07:44:04;;;;;;;10.30;6.05;;;14.40;99.90;;;;;;5038740;28;20021;-71
2023/05/20 07:46:30;;;;;;;12.40;6.60;;;14.50;99.90;;;;;;5038403;28;20053;-71
2023/05/20 07:48:56;;;;;;;10.52;6.43;;;14.60;99.90;;;;;;5038460;28;20461;-71
2023/05/20 07:51:22;;;;;;;7.60;5.35;;;14.60;99.90;;;;;;5038472;28;20025;-71
2023/05/20 07:53:47;;;;;;;11.65;6.28;;;14.60;99.90;;;;;;5038726;28;20033;-71
2023/05/20 07:56:13;;;;;;;13.73;5.88;;;14.60;99.90;;;;;;5038483;28;20029;-71
2023/05/20 07:58:42;;;;;;;11.00;6.20;;;14.70;99.90;;;;;;5037135;28;20025;-71
2023/05/20 08:01:08;;;;;;;16.65;6.85;;;14.70;99.90;;;;;;5038489;28;20075;-71
2023/05/20 08:03:35;;;;;;;12.60;6.57;;;14.70;99.90;;;;;;5031823;28;20498;-71
2023/05/20 08:06:03;;;;;;;11.30;6.20;;;14.80;99.90;;;;;;5038085;28;20022;-71
2023/05/20 08:08:29;;;;;;;10.68;6.38;;;14.80;99.90;;;;;;5038088;28;20029;-71
2023/05/20 08:10:55;;;;;;;12.95;7.72;;;14.90;99.90;;;;;;5032281;28;20059;-71
2023/05/20 08:13:21;;;;;;;10.82;6.50;;;14.90;99.90;;;;;;5030617;28;20025;-71
2023/05/20 08:15:47;;;;;;;14.65;6.07;;;15.10;99.90;;;;;;5038020;28;20450;-72
2023/05/20 08:18:14;;;;;;;9.82;5.97;;;15.20;99.90;;;;;;5037623;28;20041;-70
2023/05/20 08:20:41;;;;;;;9.18;6.20;;;15.20;99.90;;;;;;5037570;28;20025;-71
2023/05/20 08:23:06;;;;;;;10.55;5.65;;;15.20;99.90;;;;;;5037965;28;20025;-71
2023/05/20 08:25:32;;;;;;;10.82;5.88;;;15.20;99.90;;;;;;5037766;28;20030;-72
2023/05/20 08:28:02;;;;;;;16.75;6.50;;;15.30;99.90;;;;;;5037661;28;20536;-71
2023/05/20 08:30:29;;;;;;;14.95;6.70;;;15.30;99.90;;;;;;5037651;28;20121;-71
2023/05/20 08:32:55;;;;;;;12.60;5.65;;;15.50;99.90;;;;;;5037454;28;20017;-71
2023/05/20 08:35:21;;;;;;;12.95;5.97;;;15.60;99.90;;;;;;5036234;28;20124;-71
2023/05/20 08:37:46;;;;;;;13.40;5.32;;;15.70;99.90;;;;;;5036537;28;20052;-71
2023/05/20 08:40:13;;;;;;;13.05;4.90;;;15.80;99.90;;;;;;5037429;28;20108;-71
2023/05/20 08:42:42;;;;;;;11.88;6.47;;;15.90;99.90;;;;;;5037622;28;20097;-71
2023/05/20 08:45:11;;;;;;;10.25;5.82;;;16.00;99.90;;;;;;5036696;28;20065;-71
2023/05/20 08:47:44;;;;;;;11.73;6.00;;;16.20;99.90;;;;;;5037188;28;20017;-71
2023/05/20 08:50:11;;;;;;;11.32;5.30;;;16.30;99.90;;;;;;5037464;28;20018;-70
2023/05/20 08:52:44;;;;;;;9.02;5.45;;;16.20;99.90;;;;;;5037360;28;20022;-71
2023/05/20 08:55:15;;;;;;;12.63;5.80;;;16.20;99.90;;;;;;5037149;28;20437;-71
2023/05/20 08:57:41;;;;;;;;;;;16.30;99.90;;;;;;5036672;28;20067;-71
2023/05/20 09:00:12;;;;;;;10.77;6.35;;;16.20;99.90;;;;;;5035706;28;19905;-71
2023/05/20 09:02:38;;;;;;;10.23;5.05;;;16.40;99.90;;;;;;5035701;28;20089;-71
2023/05/20 09:05:04;;;;;;;6.82;5.07;;;16.30;99.90;;;;;;5037093;28;20025;-70
2023/05/20 09:07:30;;;;;;;14.02;5.15;;;16.30;99.90;;;;;;5035728;28;20035;-70
2023/05/20 09:09:57;;;;;;;11.85;5.90;;;16.50;99.90;;;;;;5031885;28;20096;-71
2023/05/20 09:12:23;;;;;;;12.43;5.93;;;16.50;99.90;;;;;;5037089;28;20189;-70
2023/05/20 09:14:49;;;;;;;14.48;4.55;;;16.60;99.90;;;;;;5036979;28;20063;-71
2023/05/20 09:17:16;;;;;;;13.63;4.57;;;16.60;99.90;;;;;;5036676;28;20030;-71
2023/05/20 09:19:42;;;;;;;8.90;5.30;;;16.50;99.90;;;;;;5035364;28;20028;-72
2023/05/20 09:22:07;;;;;;;10.18;5.00;;;16.70;99.90;;;;;;5036477;28;20022;-71
2023/05/20 09:24:33;;;;;;;11.60;5.50;;;16.80;99.90;;;;;;5036672;28;20025;-71
2023/05/20 09:26:59;;;;;;;11.15;4.97;;;16.80;99.90;;;;;;5036891;28;20021;-71
2023/05/20 09:29:25;;;;;;;5.90;4.03;;;16.90;99.90;;;;;;5036905;28;20022;-72
2023/05/20 09:31:51;;;;;;;7.47;4.60;;;17.00;99.90;;;;;;5036610;28;20026;-72
2023/05/20 09:34:16;;;;;;;10.98;4.97;;;17.10;99.90;;;;;;5035321;28;20022;-71
2023/05/20 09:36:44;;;;;;;7.15;4.75;;;17.00;99.90;;;;;;5036771;28;20509;-71
2023/05/20 09:39:19;;;;;;;10.60;4.70;;;17.10;99.90;;;;;;5036722;28;20024;-71
2023/05/20 09:42:08;;;;;;;12.45;4.60;;;17.30;99.90;;;;;;5036793;28;20541;-72
2023/05/20 09:44:34;;;;;;;12.30;4.85;;;17.30;99.90;;;;;;5036721;28;20615;-71
2023/05/20 09:47:01;;;;;;;6.45;3.78;;;17.50;99.90;;;;;;5035238;28;20029;-71
2023/05/20 09:49:29;;;;;;;13.32;4.38;;;17.70;99.90;;;;;;5035415;28;20048;-72
2023/05/20 09:51:56;;;;;;;9.70;4.60;;;17.80;99.90;;;;;;5036772;28;20080;-71
2023/05/20 09:54:24;;;;;;;6.47;4.18;;;17.90;99.90;;;;;;5036459;28;20021;-71
2023/05/20 09:56:50;;;;;;;9.70;5.07;;;17.90;99.90;;;;;;5038210;28;20013;-71
2023/05/20 09:59:17;;;;;;;8.32;4.28;;;17.80;99.90;;;;;;5040305;28;20068;-71
2023/05/20 10:01:44;;;;;;;9.65;5.75;;;17.70;99.90;;;;;;5040395;28;20017;-71
2023/05/20 10:04:12;;;;;;;11.63;4.75;;;17.80;99.90;;;;;;5040460;28;20017;-71
2023/05/20 10:07:21;;;;;;;8.65;4.18;;;17.80;99.90;;;;;;5040011;28;20014;-70
2023/05/20 10:10:02;;;;;;;8.38;4.25;;;17.70;99.90;;;;;;5035069;28;20022;-71
2023/05/20 10:12:51;;;;;;;8.32;4.40;;;17.70;99.90;;;;;;5040321;28;20060;-70
2023/05/20 10:15:20;;;;;;;6.57;3.80;;;17.80;99.90;;;;;;5036448;28;20053;-71
2023/05/20 10:18:14;;;;;;;8.98;4.40;;;18.10;99.90;;;;;;5039641;28;20037;-70
2023/05/20 10:20:49;;;;;;;9.30;3.60;;;18.30;99.90;;;;;;5039981;28;20018;-71
2023/05/20 10:23:28;;;;;;;6.05;4.05;;;18.40;99.90;;;;;;5040246;28;20026;-71
2023/05/20 10:25:55;;;;;;;10.52;4.07;;;18.30;99.90;;;;;;5040274;28;20389;-71
2023/05/20 10:28:29;;;;;;;8.05;4.32;;;18.30;99.90;;;;;;5039929;28;20032;-69
2023/05/20 10:30:56;;;;;;;7.20;3.83;;;18.40;99.90;;;;;;5040161;28;20060;-70
2023/05/20 10:33:21;;;;;;;10.63;4.55;;;18.60;99.90;;;;;;5038326;28;20036;-70
2023/05/20 10:35:50;;;;;;;9.10;4.13;;;18.80;99.90;;;;;;5038820;28;20478;-71
2023/05/20 10:38:16;;;;;;;8.52;3.88;;;18.80;99.90;;;;;;5039315;28;20097;-71
2023/05/20 10:40:42;;;;;;;10.15;3.97;;;18.90;99.90;;;;;;5039940;28;20045;-70
2023/05/20 10:43:15;;;;;;;7.78;3.88;;;19.00;99.90;;;;;;5039718;28;20037;-71
2023/05/20 10:45:52;;;;;;;7.97;3.80;;;19.30;99.90;;;;;;5038391;28;20060;-72
2023/05/20 10:48:30;;;;;;;6.13;3.78;;;19.30;99.90;;;;;;5033294;28;20025;-70
2023/05/20 10:51:04;;;;;;;6.40;3.42;;;19.40;99.90;;;;;;5039740;28;20077;-70
2023/05/20 10:53:39;;;;;;;5.20;3.15;;;19.60;99.90;;;;;;5039445;28;20025;-71
2023/05/20 10:56:05;;;;;;;11.20;3.70;;;19.30;99.90;;;;;;5031042;28;20067;-70
2023/05/20 10:58:38;;;;;;;6.88;3.55;;;19.40;99.90;;;;;;5038829;28;20068;-70
2023/05/20 11:01:04;;;;;;;5.65;3.22;;;19.60;99.90;;;;;;5039318;28;20021;-70
2023/05/20 11:03:30;;;;;;;6.00;3.35;;;19.80;99.90;;;;;;5032898;28;20098;-71
2023/05/20 11:05:55;;;;;;;6.10;2.95;;;19.90;99.90;;;;;;5032354;28;20120;-71
2023/05/20 11:08:21;;;;;;;6.80;3.30;;;19.90;99.90;;;;;;5027719;28;20057;-71
2023/05/20 11:10:47;;;;;;;5.50;3.15;;;20.00;99.90;;;;;;5037606;28;20021;-71
2023/05/20 11:13:15;;;;;;;5.22;2.63;;;20.30;99.90;;;;;;5039185;28;20037;-71
2023/05/20 11:15:41;;;;;;;7.97;3.10;;;20.50;99.90;;;;;;5039052;28;20021;-71
2023/05/20 11:18:10;;;;;;;5.88;3.63;;;20.50;99.90;;;;;;5038671;28;20045;-72
2023/05/20 11:20:36;;;;;;;8.02;4.35;;;20.30;99.90;;;;;;5038951;28;20025;-70
2023/05/20 11:23:02;;;;;;;8.00;3.20;;;20.20;99.90;;;;;;5039267;28;20036;-71
2023/05/20 11:25:28;;;;;;;8.63;3.03;;;20.10;99.90;;;;;;5038954;28;20021;-71
2023/05/20 11:27:54;;;;;;;7.80;3.13;;;20.20;99.90;;;;;;5039009;28;20482;-72
2023/05/20 11:30:20;;;;;;;14.93;3.33;;;20.20;99.90;;;;;;5037628;28;20021;-70
2023/05/20 11:33:01;;;;;;;7.32;3.00;;;20.30;99.90;;;;;;5038729;28;20027;-72
2023/05/20 11:35:31;;;;;;;8.13;3.10;;;20.40;99.90;;;;;;5027131;28;20390;-71
2023/05/20 11:38:02;;;;;;;5.45;3.13;;;20.30;99.90;;;;;;5038699;28;20025;-70
2023/05/20 11:40:28;;;;;;;5.47;2.97;;;20.10;99.90;;;;;;5038986;28;20075;-70
2023/05/20 11:42:55;;;;;;;8.32;2.72;;;20.20;99.90;;;;;;5038676;28;20021;-70
2023/05/20 11:45:21;;;;;;;7.10;2.95;;;20.20;99.90;;;;;;5038522;28;20018;-70
2023/05/20 11:47:57;;;;;;;9.75;3.50;;;20.20;99.90;;;;;;5029648;28;20503;-70
2023/05/20 11:50:22;;;;;;;6.20;2.50;;;20.20;99.90;;;;;;5035727;28;20108;-70
2023/05/20 11:52:58;;;;;;;5.25;3.15;;;20.40;99.90;;;;;;5033090;28;20045;-70
2023/05/20 11:55:25;;;;;;;5.43;2.88;;;20.50;99.90;;;;;;5036998;28;20065;-71
2023/05/20 11:57:51;;;;;;;6.38;2.75;;;20.40;99.90;;;;;;5024660;28;20036;-71
2023/05/20 12:00:17;;;;;;;7.13;3.25;;;20.40;99.90;;;;;;5031384;28;20029;-70
2023/05/20 12:02:43;;;;;;;4.85;2.80;;;20.60;99.90;;;;;;5036558;28;20632;-71
2023/05/20 12:05:10;;;;;;;5.53;2.50;;;21.00;99.90;;;;;;5038220;28;20017;-70
2023/05/20 12:07:36;;;;;;;8.90;3.45;;;20.90;99.90;;;;;;5037998;28;20025;-71
2023/05/20 12:10:05;;;;;;;6.53;2.55;;;21.00;99.90;;;;;;5022905;28;20028;-71
2023/05/20 12:12:31;;;;;;;5.97;2.33;;;20.90;99.90;;;;;;5028429;28;20021;-70
2023/05/20 12:14:57;;;;;;;5.57;2.28;;;20.90;99.90;;;;;;5036453;28;20036;-72
2023/05/20 12:17:22;;;;;;;4.32;2.40;;;20.90;99.90;;;;;;5035955;28;20104;-71
2023/05/20 12:19:48;;;;;;;5.57;2.50;;;21.00;99.90;;;;;;5035556;28;20022;-71
2023/05/20 12:22:14;;;;;;;6.50;2.30;;;21.10;99.90;;;;;;5036291;28;20086;-71
2023/05/20 12:24:40;;;;;;;6.90;2.40;;;21.30;99.90;;;;;;5034715;28;20020;-71
2023/05/20 12:27:06;;;;;;;7.20;2.58;;;21.40;99.90;;;;;;5035800;28;20014;-70
2023/05/20 12:29:32;;;;;;;7.60;2.42;;;21.80;99.90;;;;;;5035018;28;20024;-71
2023/05/20 12:31:58;;;;;;;5.50;2.05;;;21.90;98.00;;;;;;5035509;28;20099;-70
2023/05/20 12:34:24;;;;;;;7.93;2.53;;;21.50;98.40;;;;;;5036119;28;20557;-70
2023/05/20 12:36:50;;;;;;;4.97;1.90;;;21.60;98.20;;;;;;5035500;28;20060;-70
2023/05/20 12:39:17;;;;;;;5.13;2.50;;;21.70;99.00;;;;;;5033176;28;20044;-70